AMX802 MPTO-MMMX
Flight info
| Callsign | AMX802 |
|---|---|
| Flight time | N/A |
| Altitude | 38000 |
| Route | SIMAN AROVI ANSON EMARI UA317 URPOS CAT TECUN UA317 TAP J13 IZT UT157 LARLO LARL4A |
| Aircraft | B77L/H-VGDW/C |
Departure
| Time | 2026-04-30 22:56 |
|---|---|
| Airport | Tocumen International Airport (MPTO) |
Arrival
| Time | N/A |
|---|---|
| Airport | Mexico City Benito Juárez International Airport (MMMX) |
| Time | Latitude | Longitude | Altitude | Speed | Heading |
|---|---|---|---|---|---|
| 2026-04-30 22:40 | 9.06527 | -79.38758 | 149 ft | 0 kts | 72° |
| 2026-04-30 22:45 | 9.06522 | -79.38773 | 149 ft | 3 kts | 53° |
| 2026-04-30 22:46 | 9.06503 | -79.38801 | 149 ft | 3 kts | 47° |
| 2026-04-30 22:47 | 9.06446 | -79.38792 | 149 ft | 2 kts | 334° |
| 2026-04-30 22:47 | 9.06443 | -79.38790 | 149 ft | 0 kts | 336° |
| 2026-04-30 22:50 | 9.06447 | -79.38792 | 149 ft | 2 kts | 336° |
| 2026-04-30 22:51 | 9.06456 | -79.38796 | 149 ft | 2 kts | 336° |
| 2026-04-30 22:51 | 9.06423 | -79.38781 | 149 ft | 3 kts | 336° |
| 2026-04-30 22:52 | 9.06421 | -79.38780 | 149 ft | 1 kts | 339° |
| 2026-04-30 22:52 | 9.06437 | -79.38769 | 149 ft | 3 kts | 69° |
| 2026-04-30 22:53 | 9.06371 | -79.38667 | 149 ft | 10 kts | 84° |
| 2026-04-30 22:53 | 9.06532 | -79.38541 | 149 ft | 23 kts | 28° |
| 2026-04-30 22:53 | 9.06683 | -79.38460 | 149 ft | 24 kts | 27° |
| 2026-04-30 22:54 | 9.06911 | -79.38260 | 149 ft | 21 kts | 58° |
| 2026-04-30 22:55 | 9.07206 | -79.38017 | 149 ft | 10 kts | 96° |
| 2026-04-30 22:55 | 9.07091 | -79.37940 | 149 ft | 16 kts | 204° |
| 2026-04-30 22:56 | 9.05780 | -79.38670 | 315 ft | 195 kts | 210° |
| 2026-04-30 22:56 | 9.02519 | -79.42184 | 2387 ft | 252 kts | 263° |
| 2026-04-30 22:57 | 9.03717 | -79.45416 | 4541 ft | 259 kts | 311° |
| 2026-04-30 22:57 | 9.06065 | -79.48293 | 7823 ft | 279 kts | 309° |
| 2026-04-30 22:58 | 9.08469 | -79.51395 | 10478 ft | 297 kts | 309° |
| 2026-04-30 22:59 | 9.12683 | -79.56769 | 13409 ft | 357 kts | 309° |
| 2026-04-30 22:59 | 9.17758 | -79.63201 | 15956 ft | 417 kts | 308° |